createdAt,value
2019-03-18T00:05:59.446Z,7.1
2019-03-18T00:21:02.381Z,7.1
2019-03-18T00:36:25.610Z,7
2019-03-18T00:51:38.425Z,6.9
2019-03-18T01:06:51.313Z,6.8
2019-03-18T01:22:04.218Z,6.7
2019-03-18T01:37:14.788Z,6.7
2019-03-18T01:52:30.053Z,6.6
2019-03-18T02:07:42.775Z,6.4
2019-03-18T02:22:55.807Z,6.3
2019-03-18T02:37:59.971Z,6.2
2019-03-18T02:53:20.870Z,6.1
2019-03-18T03:08:33.540Z,6
2019-03-18T03:23:46.233Z,6
2019-03-18T03:38:58.766Z,6
2019-03-18T03:54:11.499Z,5.8
2019-03-18T04:09:23.827Z,5.6
2019-03-18T04:24:36.281Z,5.4
2019-03-18T04:39:48.796Z,5.2
2019-03-18T04:54:54.354Z,5.1
2019-03-18T05:10:13.429Z,4.9
2019-03-18T05:25:25.437Z,4.8
2019-03-18T05:40:37.859Z,4.8
2019-03-18T05:55:49.873Z,4.9
2019-03-18T06:11:02.085Z,4.9
2019-03-18T06:26:14.330Z,5
2019-03-18T06:41:26.659Z,5.2
2019-03-18T06:56:39.018Z,5.4
2019-03-18T07:11:49.206Z,5.4
2019-03-18T07:27:03.976Z,5.5
2019-03-18T07:42:16.471Z,5.7
2019-03-18T07:57:29.068Z,6.1
2019-03-18T08:12:36.927Z,6.6
2019-03-18T08:27:54.906Z,7.1
2019-03-18T08:43:08.075Z,7.5
2019-03-18T08:58:21.362Z,7.9
2019-03-18T09:13:24.398Z,8.2
2019-03-18T09:28:48.690Z,9
2019-03-18T09:44:02.063Z,8
2019-03-18T09:59:16.748Z,7.7
2019-03-18T10:14:28.701Z,7.7
2019-03-18T10:29:39.878Z,7.8
2019-03-18T10:44:55.390Z,8.1
2019-03-18T11:00:09.114Z,8.2
2019-03-18T11:15:22.479Z,8.2
2019-03-18T11:30:27.398Z,8.4
2019-03-18T11:45:49.666Z,8.7
2019-03-18T12:01:03.313Z,9
2019-03-18T12:16:17.030Z,8.9
2019-03-18T12:31:30.764Z,8.5
2019-03-18T12:46:43.172Z,9.9
2019-03-18T13:01:59.161Z,10.7
2019-03-18T13:17:14.023Z,11.3
2019-03-18T13:32:28.658Z,8.1
2019-03-18T13:47:32.275Z,7.3
2019-03-18T14:02:55.520Z,10
2019-03-18T14:18:09.637Z,8.9
2019-03-18T14:33:23.423Z,8.6
2019-03-18T14:48:37.250Z,9.1
2019-03-18T15:03:47.575Z,9.1
2019-03-18T15:19:05.424Z,9.2
2019-03-18T15:34:19.432Z,8.9
2019-03-18T15:49:33.192Z,9.2
2019-03-18T16:04:35.662Z,10.4
2019-03-18T16:20:01.740Z,10.6
2019-03-18T16:35:16.532Z,9.7
2019-03-18T16:50:31.311Z,9
2019-03-18T17:05:45.559Z,8.7
2019-03-18T17:20:50.810Z,8.2
2019-03-18T17:36:12.119Z,7.6
2019-03-18T17:51:25.193Z,7.2
2019-03-18T18:06:38.214Z,6.9
2019-03-18T18:21:51.073Z,6.5
2019-03-18T18:37:02.912Z,6.3
2019-03-18T18:52:16.498Z,6
2019-03-18T19:07:29.059Z,5.9
2019-03-18T19:22:41.705Z,5.8
2019-03-18T19:37:47.100Z,5.8
2019-03-18T19:53:06.819Z,5.9
2019-03-18T20:08:20.051Z,5.7
2019-03-18T20:23:32.244Z,6.8
2019-03-18T20:38:45.264Z,6.6
2019-03-18T20:53:57.858Z,5.9
2019-03-18T21:09:10.474Z,5.6
2019-03-18T21:24:23.730Z,5.6
2019-03-18T21:39:35.420Z,5.7
2019-03-18T21:54:42.506Z,5.7
2019-03-18T22:10:00.449Z,5.8
2019-03-18T22:25:13.056Z,5.8
2019-03-18T22:40:25.633Z,5.6
2019-03-18T22:55:38.047Z,5.5
2019-03-18T23:10:50.497Z,5.4
2019-03-18T23:26:02.864Z,5.3
2019-03-18T23:41:15.253Z,5.4
2019-03-18T23:56:27.728Z,5.3
